Belmullet, Ireland
Current Conditions -  °F | °C
As of 2:00 PM on Monday 24 Nov 2014 (Local Time) from EIKN Reporting Station
Light Rain Light Rain  
Wind Chill: 40°   Ceiling: 900
Heat Index: 45°   Visibility: 5mi
Dew Point: 41°   Wind: 9mph
Humidity: 87%   Direction: 190°S
Pressure: 30.18"   Gusts: NA
Location:  54.22°N, 10.01°W
Report Text: EIKN 241400Z 19008KT 160V230 8000 -RADZ BKN009 OVC080 07/05 Q1022 TEMPO 3000 BKN006
Loading
Personal Weather Stations






























Interactive Weather Map New forecast layout! Learn more

10-Day Weather Forecast

Advertisements
Track Severe Weather on mobile